Time;durP1;ratioP1;P1;durP2;ratioP2;P2;SDS_P1;SDS_P2;PMS_P1;PMS_P2;Temp;Humidity;BMP_temperature;BMP_pressure;BME280_temperature;BME280_humidity;BME280_pressure;Samples;Min_cycle;Max_cycle;Signal;HPM_P1;HPM_P2
2023/06/17 00:00:59;;;;;;;5.30;3.50;;;;;;;;;;5013023;28;20573;-67
2023/06/17 00:03:25;;;;;;;6.03;3.53;;;18.50;99.90;;;;;;5012893;28;20269;-67
2023/06/17 00:05:52;;;;;;;6.65;3.83;;;;;;;;;;5012299;28;20314;-67
2023/06/17 00:08:17;;;;;;;5.15;3.25;;;18.50;99.90;;;;;;5012840;28;20486;-67
2023/06/17 00:10:44;;;;;;;4.93;3.05;;;18.50;99.90;;;;;;5012921;28;20186;-67
2023/06/17 00:13:09;;;;;;;6.18;3.35;;;18.40;99.90;;;;;;5012618;28;20186;-67
2023/06/17 00:15:36;;;;;;;6.90;3.58;;;18.40;99.90;;;;;;5012670;28;20175;-67
2023/06/17 00:18:03;;;;;;;7.60;4.15;;;18.40;99.90;;;;;;5012624;28;20206;-67
2023/06/17 00:20:29;;;;;;;7.20;3.25;;;18.40;99.90;;;;;;5012654;28;20217;-65
2023/06/17 00:22:55;;;;;;;9.55;3.53;;;18.40;99.90;;;;;;5012888;28;20283;-68
2023/06/17 00:25:21;;;;;;;9.50;3.60;;;18.50;99.90;;;;;;5012597;28;20660;-67
2023/06/17 00:27:46;;;;;;;9.30;3.72;;;18.40;99.90;;;;;;5012454;28;20672;-67
2023/06/17 00:30:12;;;;;;;7.82;3.40;;;18.40;99.90;;;;;;5012636;28;20175;-67
2023/06/17 00:32:38;;;;;;;5.18;3.55;;;18.40;99.90;;;;;;5012595;28;20179;-67
2023/06/17 00:35:05;;;;;;;5.82;3.95;;;18.50;99.90;;;;;;5008258;28;20171;-67
2023/06/17 00:37:31;;;;;;;7.75;3.67;;;18.50;99.90;;;;;;5019538;28;20707;-66
2023/06/17 00:39:56;;;;;;;6.80;3.92;;;18.50;99.90;;;;;;5029664;28;20256;-67
2023/06/17 00:42:22;;;;;;;6.72;3.45;;;18.50;99.90;;;;;;5031746;28;20628;-67
2023/06/17 00:44:48;;;;;;;9.13;3.92;;;18.50;99.90;;;;;;5014143;28;20186;-68
2023/06/17 00:47:15;;;;;;;8.35;3.72;;;18.50;99.90;;;;;;5012110;28;20225;-68
2023/06/17 00:49:42;;;;;;;4.82;3.75;;;18.50;99.90;;;;;;5012710;28;20183;-67
2023/06/17 00:52:09;;;;;;;6.43;3.80;;;18.60;99.90;;;;;;5015290;28;20245;-67
2023/06/17 00:54:40;;;;;;;5.72;3.88;;;18.60;99.90;;;;;;5012180;28;20167;-68
2023/06/17 00:57:09;;;;;;;5.32;3.80;;;18.60;99.90;;;;;;5011852;28;20254;-68
2023/06/17 00:59:37;;;;;;;5.78;3.80;;;18.60;99.90;;;;;;4994238;28;20265;-69
2023/06/17 01:02:04;;;;;;;7.15;3.97;;;18.50;99.90;;;;;;5012019;28;20179;-66
2023/06/17 01:04:31;;;;;;;5.78;4.10;;;18.50;99.90;;;;;;5012174;28;20175;-73
2023/06/17 01:07:09;;;;;;;8.32;4.47;;;18.50;99.90;;;;;;5011900;28;20198;-75
2023/06/17 01:09:41;;;;;;;7.03;4.03;;;18.40;99.90;;;;;;5011803;28;20178;-74
2023/06/17 01:12:08;;;;;;;7.57;4.45;;;18.30;99.90;;;;;;5011754;28;20174;-75
2023/06/17 01:14:35;;;;;;;6.95;4.57;;;18.20;46.50;;;;;;5011834;28;20617;-74
2023/06/17 01:17:03;;;;;;;10.02;4.80;;;18.20;99.90;;;;;;5010886;28;20292;-74
2023/06/17 01:19:29;;;;;;;7.78;4.90;;;18.20;25.00;;;;;;5011751;28;20711;-75
2023/06/17 01:21:57;;;;;;;8.32;4.20;;;18.20;1.00;;;;;;5011799;28;20178;-75
2023/06/17 01:24:29;;;;;;;7.85;4.47;;;18.20;66.70;;;;;;5011722;28;20241;-75
2023/06/17 01:26:57;;;;;;;7.47;4.15;;;18.20;99.90;;;;;;5011619;28;20663;-75
2023/06/17 01:29:23;;;;;;;13.60;4.70;;;18.20;99.90;;;;;;5011740;28;20186;-75
2023/06/17 01:31:56;;;;;;;6.88;4.22;;;18.20;99.90;;;;;;5011508;28;20634;-73
2023/06/17 01:34:26;;;;;;;8.82;4.30;;;18.20;99.90;;;;;;5011536;28;20174;-73
2023/06/17 01:36:55;;;;;;;7.93;4.13;;;18.20;99.90;;;;;;5011360;28;20210;-73
2023/06/17 01:39:25;;;;;;;6.53;4.10;;;18.20;99.90;;;;;;5011438;28;20163;-74
2023/06/17 01:41:55;;;;;;;9.50;4.50;;;18.10;99.90;;;;;;5011472;28;20184;-74
2023/06/17 01:44:23;;;;;;;5.55;3.95;;;18.00;30.00;;;;;;5011261;28;20250;-70
2023/06/17 01:46:49;;;;;;;10.45;4.35;;;18.00;1.00;;;;;;5011425;28;20202;-70
2023/06/17 01:49:14;;;;;;;9.25;4.90;;;18.00;1.00;;;;;;5011302;28;20178;-70
2023/06/17 01:51:40;;;;;;;9.52;4.30;;;17.90;1.00;;;;;;5011740;28;20249;-69
2023/06/17 01:54:07;;;;;;;11.18;4.45;;;17.90;1.00;;;;;;5027401;28;20221;-69
2023/06/17 01:56:33;;;;;;;7.50;4.40;;;17.90;1.00;;;;;;5010935;28;20738;-69
2023/06/17 01:58:58;;;;;;;7.43;4.80;;;17.90;58.90;;;;;;4994387;28;20188;-70
2023/06/17 02:01:24;;;;;;;16.38;4.80;;;17.90;97.90;;;;;;5012145;28;20173;-70
2023/06/17 02:03:49;;;;;;;7.80;4.55;;;18.00;20.30;;;;;;5013997;28;20196;-70
2023/06/17 02:06:16;;;;;;;9.77;5.05;;;18.00;99.90;;;;;;5017092;28;20625;-70
2023/06/17 02:08:42;;;;;;;7.05;4.60;;;17.90;99.90;;;;;;5017143;28;20220;-69
2023/06/17 02:11:07;;;;;;;10.02;4.72;;;17.90;99.90;;;;;;5011009;28;20206;-71
2023/06/17 02:13:33;;;;;;;6.00;4.55;;;17.90;99.90;;;;;;5011023;28;20638;-71
2023/06/17 02:15:58;;;;;;;12.05;5.03;;;17.90;99.90;;;;;;5010859;28;20197;-71
2023/06/17 02:18:24;;;;;;;6.43;4.07;;;17.90;99.90;;;;;;5010952;28;20555;-72
2023/06/17 02:20:50;;;;;;;10.00;4.78;;;17.90;99.90;;;;;;5010824;28;20179;-72
2023/06/17 02:23:15;;;;;;;6.97;4.68;;;17.90;99.90;;;;;;5010715;28;20221;-72
2023/06/17 02:25:41;;;;;;;9.45;5.60;;;17.90;99.90;;;;;;5010732;28;20163;-71
2023/06/17 02:28:07;;;;;;;7.35;5.28;;;17.90;99.90;;;;;;5012705;28;20258;-71
2023/06/17 02:30:33;;;;;;;10.60;5.32;;;17.80;99.90;;;;;;5014597;28;20663;-76
2023/06/17 02:33:00;;;;;;;7.65;4.82;;;17.80;99.90;;;;;;5014609;28;20170;-67
2023/06/17 02:35:26;;;;;;;8.77;5.20;;;17.80;99.90;;;;;;5014463;28;20186;-67
2023/06/17 02:37:53;;;;;;;11.27;4.70;;;17.80;99.90;;;;;;5004077;28;20227;-67
2023/06/17 02:40:18;;;;;;;13.40;5.53;;;17.80;99.90;;;;;;5011686;28;20202;-65
2023/06/17 02:42:44;;;;;;;8.43;5.05;;;17.60;99.90;;;;;;5010469;28;20182;-65
2023/06/17 02:45:13;;;;;;;7.82;4.75;;;17.60;99.90;;;;;;4994705;28;20671;-65
2023/06/17 02:47:40;;;;;;;9.05;4.72;;;17.50;99.90;;;;;;4977852;28;20193;-65
2023/06/17 02:50:06;;;;;;;7.55;5.47;;;19.30;99.90;;;;;;4994482;28;20187;-65
2023/06/17 02:52:34;;;;;;;9.65;5.18;;;17.50;99.90;;;;;;4994398;28;20259;-65
2023/06/17 02:55:00;;;;;;;12.20;5.18;;;17.60;99.90;;;;;;4997496;28;20174;-65
2023/06/17 02:57:25;;;;;;;7.38;5.38;;;17.50;99.90;;;;;;5014082;28;20296;-65
2023/06/17 02:59:51;;;;;;;12.48;5.50;;;;;;;;;;5013969;28;20170;-65
2023/06/17 03:02:17;;;;;;;7.95;5.30;;;17.50;99.90;;;;;;5014061;28;20179;-64
2023/06/17 03:04:43;;;;;;;8.32;5.55;;;17.40;99.90;;;;;;5014227;28;20232;-64
2023/06/17 03:07:11;;;;;;;13.63;5.28;;;;;;;;;;5013844;28;20218;-65
2023/06/17 03:09:37;;;;;;;9.07;5.25;;;17.30;99.90;;;;;;5024114;28;20183;-64
2023/06/17 03:12:03;;;;;;;10.90;5.32;;;17.30;99.90;;;;;;5013915;28;20670;-65
2023/06/17 03:14:29;;;;;;;10.07;5.03;;;17.30;99.90;;;;;;5013578;28;20167;-65
2023/06/17 03:16:58;;;;;;;8.73;5.00;;;17.30;99.90;;;;;;5018537;28;20217;-65
2023/06/17 03:19:25;;;;;;;10.63;5.00;;;17.30;99.90;;;;;;5033085;28;20173;-65
2023/06/17 03:21:50;;;;;;;10.02;5.03;;;17.30;99.90;;;;;;5033208;28;20574;-65
2023/06/17 03:24:16;;;;;;;11.68;5.53;;;17.40;99.90;;;;;;5031923;28;20193;-65
2023/06/17 03:26:42;;;;;;;7.93;5.03;;;17.50;99.90;;;;;;5016079;28;20598;-64
2023/06/17 03:29:07;;;;;;;7.88;4.70;;;17.50;99.90;;;;;;5013456;28;20265;-65
2023/06/17 03:31:33;;;;;;;10.52;4.95;;;17.50;99.90;;;;;;5016684;28;20189;-64
2023/06/17 03:33:59;;;;;;;6.22;4.70;;;17.50;99.90;;;;;;5013494;28;20537;-64
2023/06/17 03:36:25;;;;;;;8.35;5.10;;;17.40;99.90;;;;;;5013367;28;20547;-64
2023/06/17 03:38:51;;;;;;;10.82;5.57;;;17.40;99.90;;;;;;5012428;28;20229;-64
2023/06/17 03:41:17;;;;;;;7.50;5.55;;;17.30;99.90;;;;;;5012982;28;20258;-64
2023/06/17 03:43:43;;;;;;;8.85;5.30;;;17.30;99.90;;;;;;5013286;28;20202;-64
2023/06/17 03:46:08;;;;;;;8.57;5.47;;;19.00;99.90;;;;;;5012972;28;20189;-65
2023/06/17 03:48:34;;;;;;;6.57;5.15;;;17.20;99.90;;;;;;5031132;28;20185;-65
2023/06/17 03:51:01;;;;;;;6.50;4.90;;;17.20;99.90;;;;;;5031776;28;20660;-65
2023/06/17 03:53:27;;;;;;;7.38;5.25;;;;;;;;;;5032909;28;20170;-66
2023/06/17 03:55:53;;;;;;;8.32;5.10;;;;;;;;;;5031104;28;20194;-64
2023/06/17 03:58:19;;;;;;;8.25;5.00;;;17.20;99.90;;;;;;5032859;28;20178;-66
2023/06/17 04:00:44;;;;;;;7.47;4.47;;;17.20;99.90;;;;;;5025963;28;20646;-64
2023/06/17 04:03:11;;;;;;;9.30;5.65;;;17.20;99.90;;;;;;4995039;28;20193;-64
2023/06/17 04:05:37;;;;;;;10.05;5.68;;;17.30;99.90;;;;;;5012735;28;20685;-64
2023/06/17 04:08:06;;;;;;;9.07;5.97;;;17.30;99.90;;;;;;5013786;28;20174;-66
2023/06/17 04:10:32;;;;;;;11.45;5.57;;;17.40;99.90;;;;;;5023771;28;20244;-65
2023/06/17 04:12:57;;;;;;;10.48;5.03;;;17.40;99.90;;;;;;5012764;28;20171;-65
2023/06/17 04:15:23;;;;;;;12.73;5.45;;;17.50;99.90;;;;;;5012742;28;20516;-65
2023/06/17 04:17:48;;;;;;;6.85;4.70;;;17.50;29.30;;;;;;5012533;28;20696;-65
2023/06/17 04:20:14;;;;;;;8.00;4.88;;;17.60;1.00;;;;;;5012675;28;20225;-64
2023/06/17 04:22:41;;;;;;;9.13;4.78;;;17.60;1.00;;;;;;5012594;28;20194;-65
2023/06/17 04:25:09;;;;;;;9.88;4.53;;;17.50;1.00;;;;;;5012473;28;20202;-65
2023/06/17 04:27:36;;;;;;;9.40;4.40;;;17.50;1.00;;;;;;5012721;28;20663;-64
2023/06/17 04:30:03;;;;;;;6.10;4.35;;;17.50;1.00;;;;;;5012363;28;20278;-66
2023/06/17 04:32:29;;;;;;;7.57;5.00;;;17.50;1.00;;;;;;5012374;28;20257;-66
2023/06/17 04:34:56;;;;;;;7.50;4.72;;;17.50;99.90;;;;;;5012219;28;20274;-65
2023/06/17 04:37:22;;;;;;;13.32;4.75;;;17.50;99.90;;;;;;5012132;28;20272;-65
2023/06/17 04:39:48;;;;;;;7.75;4.88;;;17.40;99.90;;;;;;5012160;28;20265;-65
2023/06/17 04:42:14;;;;;;;11.48;5.28;;;17.30;99.90;;;;;;5012130;28;20189;-65
2023/06/17 04:44:40;;;;;;;11.68;5.28;;;17.30;99.90;;;;;;5012194;28;20163;-67
2023/06/17 04:47:07;;;;;;;9.05;5.13;;;17.20;99.90;;;;;;5012050;28;20170;-66
2023/06/17 04:49:38;;;;;;;19.90;5.97;;;17.10;99.90;;;;;;5012151;28;20178;-66
2023/06/17 04:52:05;;;;;;;13.30;6.05;;;17.10;99.90;;;;;;5011929;28;20218;-66
2023/06/17 04:54:31;;;;;;;17.63;6.50;;;16.90;99.90;;;;;;5012202;28;20171;-66
2023/06/17 04:56:57;;;;;;;16.67;6.10;;;16.90;99.90;;;;;;5012067;28;20221;-66
2023/06/17 04:59:23;;;;;;;11.50;6.30;;;16.80;99.90;;;;;;4998781;28;20186;-66
2023/06/17 05:01:48;;;;;;;10.02;6.00;;;16.80;99.90;;;;;;5012121;28;20702;-66
2023/06/17 05:04:14;;;;;;;14.05;5.95;;;16.80;99.90;;;;;;5011926;28;20660;-65
2023/06/17 05:06:39;;;;;;;19.65;5.88;;;16.80;99.90;;;;;;5012099;28;20213;-67
2023/06/17 05:09:05;;;;;;;17.23;6.63;;;16.80;99.90;;;;;;5012133;28;20201;-65
2023/06/17 05:11:31;;;;;;;10.98;6.03;;;16.70;99.90;;;;;;5011828;28;20700;-65
2023/06/17 05:13:57;;;;;;;23.77;7.18;;;;;;;;;;5011831;28;20260;-65
2023/06/17 05:16:22;;;;;;;11.43;5.88;;;16.60;99.90;;;;;;5011661;28;20203;-64
2023/06/17 05:18:48;;;;;;;8.27;5.63;;;16.50;99.90;;;;;;5011804;28;20178;-65
2023/06/17 05:21:13;;;;;;;10.93;6.70;;;16.60;99.90;;;;;;4994087;28;20249;-63
2023/06/17 05:23:39;;;;;;;15.50;5.80;;;16.50;99.90;;;;;;5011649;28;20179;-65
2023/06/17 05:26:05;;;;;;;12.88;6.30;;;16.60;99.90;;;;;;5011614;28;20178;-64
2023/06/17 05:28:31;;;;;;;13.73;6.13;;;16.60;99.90;;;;;;5011644;28;20222;-65
2023/06/17 05:30:57;;;;;;;9.63;5.75;;;16.50;99.90;;;;;;5011556;28;20639;-65
2023/06/17 05:33:24;;;;;;;14.93;5.85;;;16.60;99.90;;;;;;5011620;28;20181;-65
2023/06/17 05:35:49;;;;;;;11.93;6.03;;;16.60;99.90;;;;;;5011621;28;20261;-65
2023/06/17 05:38:15;;;;;;;10.88;6.00;;;16.60;99.90;;;;;;5011533;28;20344;-65
2023/06/17 05:40:41;;;;;;;9.88;5.82;;;16.50;99.90;;;;;;4993970;28;20186;-66
2023/06/17 05:43:06;;;;;;;16.70;5.50;;;16.50;99.90;;;;;;5011323;28;20174;-65
2023/06/17 05:45:32;;;;;;;10.85;5.85;;;16.50;99.90;;;;;;5011596;28;20170;-65
2023/06/17 05:47:58;;;;;;;11.27;5.70;;;;;;;;;;5011288;28;20184;-64
2023/06/17 05:50:23;;;;;;;10.20;5.75;;;16.30;99.90;;;;;;5011294;28;20440;-65
2023/06/17 05:52:49;;;;;;;14.23;6.60;;;16.30;99.90;;;;;;5011092;28;20226;-64
2023/06/17 05:55:15;;;;;;;8.48;6.22;;;16.40;99.90;;;;;;5011125;28;20648;-65
2023/06/17 05:57:40;;;;;;;9.43;6.20;;;16.40;99.90;;;;;;5011014;28;20210;-65
2023/06/17 06:00:08;;;;;;;8.80;6.30;;;16.40;99.90;;;;;;5011103;28;20244;-65
2023/06/17 06:02:33;;;;;;;19.38;6.88;;;16.40;99.90;;;;;;5010699;28;20221;-65
2023/06/17 06:04:59;;;;;;;10.30;6.22;;;16.40;99.90;;;;;;5011219;28;20198;-65
2023/06/17 06:07:25;;;;;;;12.60;6.53;;;16.40;99.90;;;;;;5011000;28;20686;-62
2023/06/17 06:09:50;;;;;;;12.95;6.88;;;16.40;99.90;;;;;;5010901;28;20174;-64
2023/06/17 06:12:16;;;;;;;11.82;5.78;;;16.40;99.90;;;;;;5010920;28;20222;-63
2023/06/17 06:14:42;;;;;;;11.43;6.40;;;16.50;99.90;;;;;;5010792;28;20185;-63
2023/06/17 06:17:08;;;;;;;13.30;7.07;;;16.40;99.90;;;;;;5010803;28;20222;-64
2023/06/17 06:19:33;;;;;;;13.68;6.78;;;16.40;99.90;;;;;;5019845;28;20182;-64
2023/06/17 06:21:59;;;;;;;10.10;6.63;;;16.30;99.90;;;;;;5026316;28;20642;-66
2023/06/17 06:24:25;;;;;;;11.07;6.88;;;16.40;99.90;;;;;;5010719;28;20209;-64
2023/06/17 06:26:51;;;;;;;16.05;7.20;;;16.50;99.90;;;;;;5012488;28;20641;-64
2023/06/17 06:29:17;;;;;;;15.48;6.43;;;;;;;;;;5021791;28;20179;-67
2023/06/17 06:31:43;;;;;;;9.23;6.43;;;16.60;99.90;;;;;;5010759;28;20174;-70
2023/06/17 06:34:09;;;;;;;13.55;6.75;;;16.70;99.90;;;;;;5015008;28;20182;-70
2023/06/17 06:36:35;;;;;;;10.90;7.18;;;16.70;99.90;;;;;;5012990;28;20214;-69
2023/06/17 06:39:01;;;;;;;15.05;7.03;;;16.80;99.90;;;;;;5013749;28;20182;-70
2023/06/17 06:41:27;;;;;;;10.98;7.65;;;;;;;;;;5010928;28;20672;-70
2023/06/17 06:43:52;;;;;;;10.55;7.75;;;17.00;99.90;;;;;;4993226;28;20183;-70
2023/06/17 06:46:18;;;;;;;14.35;8.43;;;17.00;99.90;;;;;;5011822;28;20210;-70
2023/06/17 06:48:44;;;;;;;16.83;7.90;;;17.10;99.90;;;;;;5011598;28;20187;-71
2023/06/17 06:51:09;;;;;;;12.07;7.15;;;17.20;99.90;;;;;;5021061;28;20674;-69
2023/06/17 06:53:35;;;;;;;10.90;7.72;;;17.30;99.90;;;;;;5011617;28;20182;-68
2023/06/17 06:56:00;;;;;;;12.43;8.18;;;17.30;99.90;;;;;;5010410;28;20586;-70
2023/06/17 06:58:26;;;;;;;19.30;8.10;;;17.40;99.90;;;;;;5010731;28;20281;-70
2023/06/17 07:00:52;;;;;;;15.07;7.43;;;17.50;99.90;;;;;;5014262;28;20531;-70
2023/06/17 07:03:18;;;;;;;12.85;8.43;;;17.60;99.90;;;;;;5004241;28;20586;-70
2023/06/17 07:05:43;;;;;;;10.00;7.57;;;17.70;99.90;;;;;;5003721;28;20178;-69
2023/06/17 07:08:09;;;;;;;12.10;7.25;;;17.90;99.90;;;;;;5010468;28;20202;-69
2023/06/17 07:10:39;;;;;;;14.85;7.90;;;17.90;99.90;;;;;;4991349;28;20211;-70
2023/06/17 07:13:06;;;;;;;10.07;7.90;;;17.90;99.90;;;;;;5010251;28;20189;-70
2023/06/17 07:15:31;;;;;;;12.00;7.65;;;17.80;99.90;;;;;;5012953;28;20174;-70
2023/06/17 07:17:57;;;;;;;10.70;6.80;;;17.90;99.90;;;;;;5013839;28;20256;-72
2023/06/17 07:20:22;;;;;;;9.85;7.78;;;18.00;99.90;;;;;;5013848;28;20262;-71
2023/06/17 07:22:48;;;;;;;11.55;7.30;;;18.20;99.90;;;;;;5013899;28;20183;-70
2023/06/17 07:25:14;;;;;;;10.60;7.60;;;18.40;99.90;;;;;;5017305;28;20176;-69
2023/06/17 07:27:39;;;;;;;15.20;7.72;;;18.40;99.90;;;;;;5013805;28;20241;-66
2023/06/17 07:30:05;;;;;;;10.55;7.55;;;18.40;99.90;;;;;;5014626;28;20308;-70
2023/06/17 07:32:31;;;;;;;16.73;8.63;;;18.60;99.90;;;;;;5015593;28;20177;-76
2023/06/17 07:34:57;;;;;;;16.52;8.13;;;18.60;99.90;;;;;;5023920;28;20643;-78
2023/06/17 07:37:23;;;;;;;13.30;8.00;;;18.80;99.90;;;;;;5034027;28;20225;-75
2023/06/17 07:39:48;;;;;;;13.13;8.30;;;18.80;99.90;;;;;;5027703;28;20179;-76
2023/06/17 07:42:17;;;;;;;14.05;9.02;;;18.80;99.90;;;;;;5018548;28;20606;-74
2023/06/17 07:44:44;;;;;;;13.18;8.38;;;18.80;99.90;;;;;;5012764;28;20684;-75
2023/06/17 07:47:09;;;;;;;12.68;8.15;;;18.90;99.90;;;;;;5013629;28;20663;-73
2023/06/17 07:49:36;;;;;;;11.32;8.00;;;19.00;99.90;;;;;;5013720;28;20190;-76
2023/06/17 07:52:02;;;;;;;13.63;8.15;;;19.10;99.90;;;;;;5030266;28;20301;-77
2023/06/17 07:54:28;;;;;;;14.45;8.50;;;19.20;99.90;;;;;;5035212;28;20208;-77
2023/06/17 07:56:53;;;;;;;12.23;8.23;;;19.20;99.90;;;;;;5030495;28;20232;-75
2023/06/17 07:59:19;;;;;;;12.43;8.07;;;19.40;99.90;;;;;;5003124;28;20269;-80
2023/06/17 08:01:45;;;;;;;10.50;7.60;;;19.50;99.90;;;;;;5018133;28;20167;-77
2023/06/17 08:04:10;;;;;;;14.27;8.52;;;19.50;99.90;;;;;;5019853;28;20193;-75
2023/06/17 08:06:37;;;;;;;12.68;8.18;;;19.50;99.90;;;;;;5020291;28;20175;-78
2023/06/17 08:09:03;;;;;;;13.02;7.22;;;19.50;99.90;;;;;;5016052;28;20166;-77
2023/06/17 08:11:28;;;;;;;18.48;8.35;;;19.70;99.90;;;;;;5014600;28;20193;-76
2023/06/17 08:13:54;;;;;;;12.75;7.95;;;19.80;99.90;;;;;;5027583;28;20577;-86
2023/06/17 08:16:20;;;;;;;10.43;7.50;;;19.90;99.90;;;;;;5022416;28;20723;-69
2023/06/17 08:18:46;;;;;;;10.15;7.68;;;;;;;;;;5011585;28;20190;-70
2023/06/17 08:21:11;;;;;;;13.43;7.60;;;20.00;99.90;;;;;;5016140;28;20179;-69
2023/06/17 08:23:37;;;;;;;12.73;7.45;;;19.90;99.90;;;;;;5015696;28;20633;-68
2023/06/17 08:26:04;;;;;;;14.55;7.93;;;19.80;99.90;;;;;;5028900;28;20216;-68
2023/06/17 08:28:30;;;;;;;11.85;7.38;;;20.00;99.90;;;;;;5034644;28;20253;-67
2023/06/17 08:30:55;;;;;;;10.85;7.45;;;20.20;99.90;;;;;;5036517;28;20528;-68
2023/06/17 08:33:21;;;;;;;9.52;7.25;;;20.20;99.90;;;;;;5043247;28;20213;-70
2023/06/17 08:35:46;;;;;;;11.23;7.50;;;20.30;99.90;;;;;;5035268;28;20579;-72
2023/06/17 08:38:12;;;;;;;11.13;7.82;;;20.50;99.90;;;;;;5034459;28;20224;-74
2023/06/17 08:40:43;;;;;;;15.57;7.65;;;20.40;99.90;;;;;;5024621;28;20167;-69
2023/06/17 08:43:09;;;;;;;13.13;7.65;;;20.40;99.90;;;;;;5014801;28;20178;-66
2023/06/17 08:45:36;;;;;;;9.70;7.45;;;20.40;99.90;;;;;;5012059;28;20185;-66
2023/06/17 08:48:03;;;;;;;11.73;7.72;;;20.00;99.90;;;;;;5012013;28;20178;-64
2023/06/17 08:50:30;;;;;;;17.17;7.65;;;20.10;99.90;;;;;;5012197;28;20174;-65
2023/06/17 08:52:57;;;;;;;10.52;6.95;;;20.30;99.90;;;;;;5012052;28;20248;-65
2023/06/17 08:55:23;;;;;;;14.32;6.43;;;20.30;99.90;;;;;;5022663;28;20198;-65
2023/06/17 08:57:52;;;;;;;11.02;6.57;;;20.40;99.90;;;;;;5031492;28;20229;-66
2023/06/17 09:00:18;;;;;;;9.18;5.82;;;20.60;99.90;;;;;;5031802;28;20185;-65
2023/06/17 09:02:45;;;;;;;9.30;6.00;;;20.90;99.90;;;;;;5031814;28;20193;-65
2023/06/17 09:05:11;;;;;;;10.02;5.85;;;21.20;99.90;;;;;;5031602;28;20177;-66
2023/06/17 09:07:37;;;;;;;10.07;6.13;;;21.10;99.90;;;;;;5029318;28;20196;-65
2023/06/17 09:10:08;;;;;;;12.90;6.20;;;21.30;84.30;;;;;;5015348;28;20297;-66
2023/06/17 09:12:40;;;;;;;8.60;5.78;;;21.60;99.90;;;;;;5012022;28;20183;-65
2023/06/17 09:15:07;;;;;;;9.77;5.63;;;21.90;99.90;;;;;;5011899;28;20163;-66
2023/06/17 09:17:36;;;;;;;11.52;5.35;;;21.80;1.00;;;;;;5025823;28;20264;-67
2023/06/17 09:20:12;;;;;;;11.45;5.78;;;21.60;1.00;;;;;;5029957;28;20174;-66
2023/06/17 09:22:39;;;;;;;11.07;5.10;;;21.20;1.00;;;;;;5031493;28;20670;-66
2023/06/17 09:25:11;;;;;;;8.75;4.95;;;21.30;1.00;;;;;;5031483;28;20177;-66
2023/06/17 09:27:44;;;;;;;12.40;5.07;;;21.90;99.90;;;;;;5030644;28;20257;-66
2023/06/17 09:30:10;;;;;;;11.48;5.65;;;22.00;1.00;;;;;;5031351;28;20178;-69
2023/06/17 09:32:40;;;;;;;11.35;5.18;;;22.50;99.90;;;;;;5017946;28;20174;-66
2023/06/17 09:35:11;;;;;;;11.25;5.13;;;22.10;39.60;;;;;;5029650;28;20181;-67
2023/06/17 09:37:37;;;;;;;10.85;5.10;;;22.30;1.00;;;;;;5012565;28;20308;-66
2023/06/17 09:40:06;;;;;;;10.75;5.03;;;22.50;1.00;;;;;;5013226;28;20261;-66
2023/06/17 09:42:32;;;;;;;9.13;4.70;;;22.50;99.90;;;;;;5028650;28;20205;-66
2023/06/17 09:45:03;;;;;;;10.70;5.45;;;22.50;99.90;;;;;;5031058;28;20499;-66
2023/06/17 09:47:37;;;;;;;8.93;5.43;;;22.70;99.90;;;;;;5025312;28;20185;-66
2023/06/17 09:50:09;;;;;;;12.90;5.78;;;23.10;99.90;;;;;;5010736;28;20197;-66
2023/06/17 09:52:37;;;;;;;9.65;5.53;;;23.40;99.90;;;;;;5006847;28;20225;-66
2023/06/17 09:55:05;;;;;;;7.07;5.07;;;23.40;1.00;;;;;;5011201;28;20629;-67
2023/06/17 09:57:31;;;;;;;7.18;4.65;;;23.50;1.00;;;;;;5011380;28;20240;-67
2023/06/17 10:00:00;;;;;;;6.80;4.90;;;24.00;1.00;;;;;;5011083;28;20178;-66
2023/06/17 10:02:27;;;;;;;8.57;5.32;;;23.90;1.00;;;;;;5011262;28;20209;-66
2023/06/17 10:04:53;;;;;;;6.22;4.63;;;24.20;99.90;;;;;;5011193;28;20260;-66
2023/06/17 10:07:24;;;;;;;7.70;4.80;;;24.70;1.00;;;;;;5011214;28;20163;-66
2023/06/17 10:09:51;;;;;;;7.82;4.82;;;24.70;99.90;;;;;;5011134;28;20178;-67
2023/06/17 10:12:19;;;;;;;6.90;4.40;;;24.60;99.90;;;;;;5011129;28;20182;-67
2023/06/17 10:14:47;;;;;;;10.60;5.05;;;24.60;1.00;;;;;;5011066;28;20174;-67
2023/06/17 10:17:14;;;;;;;17.33;5.43;;;24.80;1.00;;;;;;5010985;28;20633;-67
2023/06/17 10:19:41;;;;;;;8.23;4.80;;;24.60;1.00;;;;;;5011109;28;20220;-67
2023/06/17 10:22:12;;;;;;;8.85;4.13;;;25.20;1.00;;;;;;5011004;28;20178;-65
2023/06/17 10:24:38;;;;;;;7.40;4.50;;;24.90;1.00;;;;;;5011943;28;20225;-65
2023/06/17 10:27:06;;;;;;;11.02;4.78;;;25.00;99.90;;;;;;5012072;28;20175;-65
2023/06/17 10:29:35;;;;;;;10.93;4.55;;;24.50;99.90;;;;;;5012552;28;20174;-65
2023/06/17 10:32:16;;;;;;;6.47;4.55;;;24.80;99.90;;;;;;5013084;28;20568;-65
2023/06/17 10:35:06;;;;;;;7.18;4.05;;;25.00;1.00;;;;;;5011353;28;20174;-65
2023/06/17 10:37:38;;;;;;;8.48;4.32;;;25.00;1.00;;;;;;5010815;28;20267;-65
2023/06/17 10:40:23;;;;;;;7.40;4.32;;;25.50;1.00;;;;;;5011259;28;20174;-66
2023/06/17 10:43:01;;;;;;;6.93;4.10;;;25.30;1.00;;;;;;5010813;28;20519;-65
2023/06/17 10:45:46;;;;;;;5.40;4.10;;;26.20;99.90;;;;;;5011059;28;20237;-66
2023/06/17 10:48:23;;;;;;;6.40;4.05;;;26.60;1.00;;;;;;5011394;28;20777;-66
2023/06/17 10:51:03;;;;;;;7.38;4.18;;;26.10;99.90;;;;;;5014726;28;20166;-66
2023/06/17 10:53:35;;;;;;;8.35;4.30;;;26.40;1.00;;;;;;5014409;28;20198;-66
2023/06/17 10:56:03;;;;;;;7.07;4.05;;;26.50;99.90;;;;;;5014406;28;20256;-66
2023/06/17 10:58:36;;;;;;;6.07;4.05;;;26.80;99.90;;;;;;5014356;28;20292;-66
2023/06/17 11:01:07;;;;;;;7.50;4.20;;;26.70;99.90;;;;;;5014476;28;20237;-66
2023/06/17 11:03:33;;;;;;;6.63;3.97;;;27.00;99.90;;;;;;5014381;28;20175;-67
2023/06/17 11:06:03;;;;;;;7.30;4.18;;;27.00;99.90;;;;;;5014234;28;20213;-65
2023/06/17 11:08:30;;;;;;;8.57;4.22;;;27.10;99.90;;;;;;5014334;28;20174;-66
2023/06/17 11:11:10;;;;;;;7.25;4.38;;;27.50;99.90;;;;;;5014135;28;20171;-64
2023/06/17 11:13:40;;;;;;;8.32;4.85;;;27.80;92.30;;;;;;5014074;28;20707;-66
2023/06/17 11:16:06;;;;;;;14.73;4.70;;;28.10;29.20;;;;;;5014574;28;20265;-65
2023/06/17 11:18:38;;;;;;;7.45;4.07;;;28.40;1.00;;;;;;5014740;28;20218;-64
2023/06/17 11:21:05;;;;;;;10.25;4.63;;;28.40;1.00;;;;;;5014532;28;20653;-65
2023/06/17 11:23:31;;;;;;;6.15;4.00;;;28.20;1.00;;;;;;5014345;28;20171;-66
2023/06/17 11:25:57;;;;;;;7.70;4.50;;;28.90;1.00;;;;;;5014090;28;20162;-66
2023/06/17 11:28:23;;;;;;;8.45;4.53;;;28.10;1.00;;;;;;5013846;28;20258;-66
2023/06/17 11:30:49;;;;;;;10.80;4.60;;;27.80;1.00;;;;;;5013865;28;20612;-67
2023/06/17 11:33:18;;;;;;;6.70;4.10;;;28.00;1.00;;;;;;5014011;28;20179;-66
2023/06/17 11:35:44;;;;;;;8.52;3.95;;;27.80;1.00;;;;;;5013718;28;20194;-66
2023/06/17 11:38:11;;;;;;;7.00;4.18;;;28.00;1.00;;;;;;5013683;28;20214;-65
2023/06/17 11:40:40;;;;;;;4.70;3.70;;;27.70;1.00;;;;;;5013616;28;20190;-65
2023/06/17 11:43:06;;;;;;;4.57;3.67;;;27.00;1.00;;;;;;5013770;28;20571;-66
2023/06/17 11:45:34;;;;;;;9.00;3.50;;;25.80;1.00;;;;;;5013544;28;20681;-65
2023/06/17 11:48:00;;;;;;;14.02;3.90;;;25.30;1.00;;;;;;4995994;28;20181;-65
2023/06/17 11:50:30;;;;;;;7.78;3.90;;;25.30;1.00;;;;;;5013708;28;20183;-66
2023/06/17 11:52:59;;;;;;;6.13;4.10;;;25.70;1.00;;;;;;5013253;28;20233;-66
2023/06/17 11:55:34;;;;;;;6.72;4.38;;;25.60;1.00;;;;;;5001063;28;20174;-65
2023/06/17 11:58:02;;;;;;;7.63;4.95;;;25.50;1.00;;;;;;5013172;28;20210;-65
2023/06/17 12:00:29;;;;;;;9.50;4.68;;;25.20;1.00;;;;;;5000930;28;20179;-66
2023/06/17 12:02:56;;;;;;;6.93;4.53;;;25.10;1.00;;;;;;4993703;28;20265;-65
2023/06/17 12:05:26;;;;;;;8.43;4.55;;;25.40;1.00;;;;;;5012723;28;20216;-65
2023/06/17 12:07:52;;;;;;;5.53;4.82;;;;;;;;;;5012976;28;20275;-64
2023/06/17 12:10:18;;;;;;;6.68;5.00;;;26.20;1.00;;;;;;5026667;28;20645;-65
2023/06/17 12:12:44;;;;;;;12.98;5.35;;;26.30;1.00;;;;;;5020225;28;20194;-65
2023/06/17 12:15:10;;;;;;;6.00;4.40;;;26.10;1.00;;;;;;4994905;28;20744;-65
2023/06/17 12:17:43;;;;;;;7.65;4.57;;;27.40;1.00;;;;;;5023763;28;20305;-64
2023/06/17 12:20:15;;;;;;;7.80;5.00;;;27.60;1.00;;;;;;5012727;28;20167;-64
2023/06/17 12:22:45;;;;;;;7.80;5.13;;;27.30;1.00;;;;;;5012595;28;20261;-65
2023/06/17 12:25:11;;;;;;;12.02;5.03;;;;;;;;;;5012416;28;20190;-65
2023/06/17 12:27:38;;;;;;;7.55;4.85;;;26.60;1.00;;;;;;5013165;28;20170;-66
2023/06/17 12:30:05;;;;;;;9.32;5.28;;;26.50;1.00;;;;;;5013335;28;20202;-66
2023/06/17 12:32:31;;;;;;;6.13;4.85;;;26.90;1.00;;;;;;5012703;28;20183;-64
2023/06/17 12:34:57;;;;;;;7.95;5.60;;;26.70;1.00;;;;;;5012628;28;20178;-64
2023/06/17 12:37:29;;;;;;;6.57;4.72;;;26.70;1.00;;;;;;5012419;28;20217;-65
2023/06/17 12:40:00;;;;;;;6.70;4.80;;;26.90;1.00;;;;;;5012563;28;20220;-65
2023/06/17 12:42:26;;;;;;;9.73;4.90;;;27.20;1.00;;;;;;5012427;28;20209;-65
2023/06/17 12:44:52;;;;;;;9.43;4.20;;;28.40;1.00;;;;;;5013789;28;20197;-65
2023/06/17 12:47:22;;;;;;;9.27;5.20;;;29.20;1.00;;;;;;5029799;28;20629;-66